createdAt,value
2017-10-21T00:00:46.543Z,77.6
2017-10-21T00:01:47.933Z,77.7
2017-10-21T00:02:49.319Z,77.3
2017-10-21T00:03:50.709Z,78.2
2017-10-21T00:04:52.102Z,78.5
2017-10-21T00:05:53.487Z,78.1
2017-10-21T00:06:54.877Z,78.1
2017-10-21T00:07:56.263Z,77.9
2017-10-21T00:08:57.652Z,78.0
2017-10-21T00:09:59.043Z,78.4
2017-10-21T00:11:00.433Z,77.8
2017-10-21T00:12:01.823Z,77.9
2017-10-21T00:13:03.209Z,78.1
2017-10-21T00:14:04.598Z,78.0
2017-10-21T00:15:05.986Z,78.0
2017-10-21T00:16:07.379Z,78.2
2017-10-21T00:17:08.761Z,78.2
2017-10-21T00:18:10.149Z,78.2
2017-10-21T00:19:11.540Z,78.3
2017-10-21T00:20:12.929Z,78.8
2017-10-21T00:21:14.315Z,78.2
2017-10-21T00:22:15.703Z,78.3
2017-10-21T00:23:17.091Z,78.3
2017-10-21T00:24:18.485Z,78.1
2017-10-21T00:25:19.874Z,78.0
2017-10-21T00:26:21.262Z,78.1
2017-10-21T00:27:22.649Z,77.7
2017-10-21T00:28:24.036Z,78.0
2017-10-21T00:29:25.426Z,78.0
2017-10-21T00:30:26.815Z,78.3
2017-10-21T00:31:28.203Z,78.3
2017-10-21T00:32:29.593Z,78.5
2017-10-21T00:33:30.984Z,78.5
2017-10-21T00:34:32.370Z,78.2
2017-10-21T00:35:33.758Z,78.6
2017-10-21T00:36:35.148Z,78.6
2017-10-21T00:37:36.535Z,78.6
2017-10-21T00:38:37.926Z,78.8
2017-10-21T00:39:39.315Z,78.2
2017-10-21T00:40:40.705Z,78.5
2017-10-21T00:41:42.091Z,78.6
2017-10-21T00:42:43.478Z,78.5
2017-10-21T00:43:44.863Z,79.0
2017-10-21T00:44:46.250Z,78.6
2017-10-21T00:45:47.653Z,79.2
2017-10-21T00:46:49.030Z,79.0
2017-10-21T00:47:50.427Z,79.3
2017-10-21T00:48:51.805Z,79.6
2017-10-21T00:49:53.191Z,78.9
2017-10-21T00:50:54.582Z,79.2
2017-10-21T00:51:55.978Z,79.1
2017-10-21T00:52:57.360Z,79.1
2017-10-21T00:53:58.751Z,79.2
2017-10-21T00:55:00.140Z,79.1
2017-10-21T00:56:01.529Z,79.0
2017-10-21T00:57:02.917Z,78.8
2017-10-21T00:58:04.304Z,79.0
2017-10-21T00:59:05.694Z,78.8
2017-10-21T01:00:07.081Z,79.1
2017-10-21T01:01:08.474Z,79.6
2017-10-21T01:02:09.866Z,78.9
2017-10-21T01:03:11.250Z,78.8
2017-10-21T01:04:12.637Z,79.3
2017-10-21T01:05:14.026Z,79.4
2017-10-21T01:06:15.415Z,79.4
2017-10-21T01:07:16.812Z,79.3
2017-10-21T01:08:18.193Z,79.4
2017-10-21T01:09:19.583Z,79.4
2017-10-21T01:10:20.974Z,79.4
2017-10-21T01:11:22.360Z,79.1
2017-10-21T01:12:23.747Z,79.1
2017-10-21T01:13:25.136Z,79.2
2017-10-21T01:14:26.524Z,79.5
2017-10-21T01:15:27.915Z,79.3
2017-10-21T01:16:29.304Z,79.2
2017-10-21T01:17:30.691Z,79.4
2017-10-21T01:18:32.078Z,79.1
2017-10-21T01:19:33.465Z,79.2
2017-10-21T01:20:34.855Z,79.5
2017-10-21T01:21:36.245Z,79.5
2017-10-21T01:22:37.635Z,80.1
2017-10-21T01:23:39.026Z,79.8
2017-10-21T01:24:40.413Z,79.7
2017-10-21T01:25:41.799Z,79.7
2017-10-21T01:26:43.190Z,80.8
2017-10-21T01:27:44.576Z,80.4
2017-10-21T01:28:45.966Z,80.1
2017-10-21T01:29:47.357Z,80.1
2017-10-21T01:30:48.746Z,80.5
2017-10-21T01:31:50.143Z,80.3
2017-10-21T01:32:51.524Z,80.8
2017-10-21T01:33:52.910Z,80.8
2017-10-21T01:34:54.299Z,81.0
2017-10-21T01:35:55.690Z,80.9
2017-10-21T01:36:57.082Z,80.6
2017-10-21T01:37:58.469Z,80.7
2017-10-21T01:38:59.856Z,80.6
2017-10-21T01:40:01.248Z,80.7
2017-10-21T01:41:02.642Z,80.4
2017-10-21T01:42:04.031Z,80.5
2017-10-21T01:43:05.419Z,80.6
2017-10-21T01:44:06.806Z,80.8
2017-10-21T01:45:08.198Z,80.8
2017-10-21T01:46:09.580Z,80.7
2017-10-21T01:47:10.973Z,80.6
2017-10-21T01:48:12.360Z,80.9
2017-10-21T01:49:13.748Z,80.4
2017-10-21T01:50:15.138Z,80.2
2017-10-21T01:51:16.530Z,80.2
2017-10-21T01:52:17.921Z,80.6
2017-10-21T01:53:19.347Z,80.2
2017-10-21T01:54:20.694Z,80.6
2017-10-21T01:55:22.081Z,80.4
2017-10-21T01:56:23.468Z,80.1
2017-10-21T01:57:24.855Z,80.6
2017-10-21T01:58:26.243Z,80.4
2017-10-21T01:59:27.634Z,80.4
2017-10-21T02:00:29.025Z,80.3
2017-10-21T02:01:30.410Z,80.4
2017-10-21T02:02:31.798Z,80.1
2017-10-21T02:03:33.189Z,80.3
2017-10-21T02:04:34.575Z,80.3
2017-10-21T02:05:35.966Z,80.3
2017-10-21T02:06:37.354Z,80.4
2017-10-21T02:07:38.737Z,79.7
2017-10-21T02:08:40.126Z,80.1
2017-10-21T02:09:41.517Z,79.7
2017-10-21T02:10:42.903Z,79.8
2017-10-21T02:11:44.294Z,79.6
2017-10-21T02:12:45.680Z,79.9
2017-10-21T02:13:47.072Z,79.9
2017-10-21T02:14:48.459Z,79.9
2017-10-21T02:15:49.847Z,79.8
2017-10-21T02:16:51.235Z,79.6
2017-10-21T02:17:52.626Z,79.8
2017-10-21T02:18:54.011Z,79.9
2017-10-21T02:19:55.401Z,79.5
2017-10-21T02:20:56.791Z,80.4
2017-10-21T02:21:58.180Z,80.5
2017-10-21T02:22:59.573Z,80.5
2017-10-21T02:24:00.959Z,79.5
2017-10-21T02:25:02.349Z,80.7
2017-10-21T02:26:03.749Z,79.6
2017-10-21T02:27:05.125Z,79.9
2017-10-21T02:28:06.515Z,80.0
2017-10-21T02:29:07.904Z,80.5
2017-10-21T02:30:09.294Z,80.4
2017-10-21T02:31:10.682Z,80.3
2017-10-21T02:32:12.072Z,80.4
2017-10-21T02:33:13.458Z,80.7
2017-10-21T02:34:14.845Z,80.8
2017-10-21T02:35:16.235Z,80.2
2017-10-21T02:36:17.623Z,80.5
2017-10-21T02:37:19.009Z,80.5
2017-10-21T02:38:20.399Z,80.1
2017-10-21T02:39:21.784Z,79.9
2017-10-21T02:40:23.178Z,79.9
2017-10-21T02:41:24.564Z,80.1
2017-10-21T02:42:25.954Z,80.4
2017-10-21T02:43:27.341Z,80.8
2017-10-21T02:44:28.730Z,79.7
2017-10-21T02:45:30.117Z,79.9
2017-10-21T02:46:31.504Z,79.9
2017-10-21T02:47:32.893Z,79.8
2017-10-21T02:48:34.283Z,79.8
2017-10-21T02:49:35.671Z,79.8
2017-10-21T02:50:37.057Z,79.7
2017-10-21T02:51:38.443Z,79.2
2017-10-21T02:52:39.830Z,79.6
2017-10-21T02:53:41.220Z,79.2
2017-10-21T02:54:42.608Z,79.6
2017-10-21T02:55:43.998Z,79.5
2017-10-21T02:56:45.391Z,79.5
2017-10-21T02:57:46.775Z,79.5
2017-10-21T02:58:48.161Z,79.6
2017-10-21T02:59:49.548Z,79.5
2017-10-21T03:00:50.941Z,79.1
2017-10-21T03:01:52.331Z,79.1
2017-10-21T03:02:53.714Z,79.3
2017-10-21T03:03:55.101Z,79.0
2017-10-21T03:04:56.488Z,79.3
2017-10-21T03:05:57.915Z,79.3
2017-10-21T03:06:59.301Z,79.1
2017-10-21T03:08:00.689Z,79.2
2017-10-21T03:09:02.076Z,79.1
2017-10-21T03:10:03.467Z,79.4
2017-10-21T03:11:04.856Z,79.0
2017-10-21T03:12:06.242Z,78.9
2017-10-21T03:13:07.630Z,79.5
2017-10-21T03:14:09.017Z,79.0
2017-10-21T03:15:10.408Z,79.2
2017-10-21T03:16:11.797Z,79.7
2017-10-21T03:17:13.186Z,79.5
2017-10-21T03:18:14.573Z,79.3
2017-10-21T03:19:15.959Z,79.2
2017-10-21T03:20:17.346Z,79.2
2017-10-21T03:21:18.737Z,79.5
2017-10-21T03:22:20.124Z,79.5
2017-10-21T03:23:21.512Z,79.9
2017-10-21T03:24:22.902Z,79.8
2017-10-21T03:25:24.289Z,80.1
2017-10-21T03:26:25.674Z,79.8
2017-10-21T03:27:27.060Z,79.9
2017-10-21T03:28:28.448Z,80.4
2017-10-21T03:29:29.838Z,80.5
2017-10-21T03:30:31.224Z,80.7
2017-10-21T03:31:32.613Z,80.7
2017-10-21T03:32:33.999Z,80.8
2017-10-21T03:33:35.385Z,81.0
2017-10-21T03:34:36.800Z,81.0
2017-10-21T03:35:38.187Z,80.4
2017-10-21T03:36:39.576Z,80.6
2017-10-21T03:37:40.963Z,81.2
2017-10-21T03:38:42.354Z,81.0
2017-10-21T03:39:43.746Z,80.7
2017-10-21T03:40:45.126Z,80.7
2017-10-21T03:41:46.513Z,80.9
2017-10-21T03:42:47.903Z,81.0
2017-10-21T03:43:49.291Z,80.7
2017-10-21T03:44:50.680Z,81.0
2017-10-21T03:45:52.067Z,80.8
2017-10-21T03:46:53.454Z,81.0
2017-10-21T03:47:54.844Z,80.7
2017-10-21T03:48:56.229Z,80.7
2017-10-21T03:49:57.621Z,80.9
2017-10-21T03:50:59.008Z,80.7
2017-10-21T03:52:00.398Z,81.0
2017-10-21T03:53:01.788Z,81.0
2017-10-21T03:54:03.176Z,81.1
2017-10-21T03:55:04.563Z,81.6
2017-10-21T03:56:05.950Z,82.0
2017-10-21T03:57:07.334Z,81.9
2017-10-21T03:58:08.723Z,81.5
2017-10-21T03:59:10.108Z,81.6
2017-10-21T04:00:11.497Z,81.5
2017-10-21T04:01:12.887Z,81.7
2017-10-21T04:02:14.275Z,82.1
2017-10-21T04:03:15.662Z,82.2
2017-10-21T04:04:17.044Z,81.9
2017-10-21T04:05:18.435Z,82.3
2017-10-21T04:06:19.828Z,82.4
2017-10-21T04:07:21.212Z,82.4
2017-10-21T04:08:22.602Z,82.1
2017-10-21T04:09:23.989Z,81.8
2017-10-21T04:10:25.374Z,81.9
2017-10-21T04:11:26.760Z,82.6
2017-10-21T04:12:28.150Z,82.3
2017-10-21T04:13:29.538Z,82.8
2017-10-21T04:14:30.928Z,82.8
2017-10-21T04:15:32.315Z,82.9
2017-10-21T04:16:33.701Z,82.6
2017-10-21T04:17:35.086Z,82.7
2017-10-21T04:18:36.473Z,82.8
2017-10-21T04:19:37.860Z,82.7
2017-10-21T04:20:39.245Z,82.8
2017-10-21T04:21:40.635Z,82.5
2017-10-21T04:22:42.025Z,82.7
2017-10-21T04:23:43.411Z,83.0
2017-10-21T04:24:44.796Z,82.8
2017-10-21T04:25:46.184Z,82.6
2017-10-21T04:26:47.570Z,83.3
2017-10-21T04:27:48.956Z,83.0
2017-10-21T04:28:50.348Z,83.1
2017-10-21T04:29:51.737Z,83.6
2017-10-21T04:30:53.122Z,83.5
2017-10-21T04:31:54.508Z,83.1
2017-10-21T04:32:55.897Z,83.1
2017-10-21T04:33:57.283Z,83.5
2017-10-21T04:34:58.673Z,83.3
2017-10-21T04:36:00.065Z,83.6
2017-10-21T04:37:01.452Z,83.8
2017-10-21T04:38:02.835Z,83.7
2017-10-21T04:39:04.223Z,83.6
2017-10-21T04:40:05.606Z,83.8
2017-10-21T04:41:06.995Z,83.7
2017-10-21T04:42:08.381Z,84.5
2017-10-21T04:43:09.773Z,84.2
2017-10-21T04:44:11.162Z,84.2
2017-10-21T04:45:12.586Z,84.2
2017-10-21T04:46:13.971Z,84.1
2017-10-21T04:47:15.359Z,84.1
2017-10-21T04:48:16.745Z,84.2
2017-10-21T04:49:18.132Z,84.2
2017-10-21T04:50:19.523Z,83.8
2017-10-21T04:51:20.915Z,83.8
2017-10-21T04:52:22.297Z,83.7
2017-10-21T04:53:23.685Z,84.0
2017-10-21T04:54:25.068Z,84.4
2017-10-21T04:55:26.458Z,84.0
2017-10-21T04:56:27.847Z,84.4
2017-10-21T04:57:29.237Z,84.6
2017-10-21T04:58:30.626Z,84.3
2017-10-21T04:59:32.014Z,84.9
2017-10-21T05:00:33.398Z,84.4
2017-10-21T05:01:34.786Z,85.2
2017-10-21T05:02:36.176Z,85.4
2017-10-21T05:03:37.560Z,85.2
2017-10-21T05:04:38.954Z,85.5
2017-10-21T05:05:40.341Z,85.4
2017-10-21T05:06:41.728Z,85.5
2017-10-21T05:07:43.116Z,85.4
2017-10-21T05:08:44.503Z,85.3
2017-10-21T05:09:45.898Z,85.5
2017-10-21T05:10:47.278Z,85.6
2017-10-21T05:11:48.666Z,85.6
2017-10-21T05:12:50.054Z,85.5
2017-10-21T05:13:51.440Z,85.8
2017-10-21T05:14:52.826Z,85.4
2017-10-21T05:15:54.214Z,85.3
2017-10-21T05:16:55.604Z,86.0
2017-10-21T05:17:56.990Z,86.2
2017-10-21T05:18:58.377Z,86.1
2017-10-21T05:19:59.763Z,86.1
2017-10-21T05:21:01.148Z,85.5
2017-10-21T05:22:02.534Z,85.9
2017-10-21T05:23:03.923Z,85.9
2017-10-21T05:24:05.314Z,86.1
2017-10-21T05:25:06.700Z,86.2
2017-10-21T05:26:08.089Z,86.6
2017-10-21T05:27:09.477Z,86.0
2017-10-21T05:28:10.865Z,86.4
2017-10-21T05:29:12.253Z,86.4
2017-10-21T05:30:13.639Z,86.5
2017-10-21T05:31:15.028Z,86.6
2017-10-21T05:32:16.416Z,86.9
2017-10-21T05:33:17.805Z,86.5
2017-10-21T05:34:19.195Z,86.8
2017-10-21T05:35:20.581Z,86.8
2017-10-21T05:36:21.968Z,86.5
2017-10-21T05:37:23.354Z,86.9
2017-10-21T05:38:24.738Z,86.6
2017-10-21T05:39:26.127Z,86.5
2017-10-21T05:40:27.515Z,86.5
2017-10-21T05:41:28.908Z,86.6
2017-10-21T05:42:30.291Z,86.8
2017-10-21T05:43:31.678Z,86.5
2017-10-21T05:44:33.066Z,86.8
2017-10-21T05:45:34.457Z,86.9
2017-10-21T05:46:35.845Z,86.5
2017-10-21T05:47:37.234Z,86.8
2017-10-21T05:48:38.624Z,87.0
2017-10-21T05:49:40.011Z,86.9
2017-10-21T05:50:41.389Z,86.9
2017-10-21T05:51:42.776Z,87.2
2017-10-21T05:52:44.166Z,86.7
2017-10-21T05:53:45.556Z,86.9
2017-10-21T05:54:46.945Z,86.8
2017-10-21T05:55:48.333Z,86.9
2017-10-21T05:56:49.719Z,86.9
2017-10-21T05:57:51.105Z,86.9
2017-10-21T05:58:52.495Z,86.9
2017-10-21T05:59:53.885Z,86.9
2017-10-21T06:00:55.274Z,86.6
2017-10-21T06:01:56.663Z,86.5
2017-10-21T06:02:58.055Z,86.7
2017-10-21T06:03:59.443Z,86.7
2017-10-21T06:05:00.833Z,86.5
2017-10-21T06:06:02.219Z,86.1
2017-10-21T06:07:03.608Z,86.6
2017-10-21T06:08:04.998Z,86.5
2017-10-21T06:09:06.393Z,86.6
2017-10-21T06:10:07.778Z,86.6
2017-10-21T06:11:09.165Z,86.4
2017-10-21T06:12:10.556Z,86.6
2017-10-21T06:13:11.943Z,86.8
2017-10-21T06:14:13.333Z,86.7
2017-10-21T06:15:14.723Z,86.0
2017-10-21T06:16:16.118Z,86.6
2017-10-21T06:17:17.505Z,86.6
2017-10-21T06:18:18.891Z,86.9
2017-10-21T06:19:20.279Z,86.8
2017-10-21T06:20:21.666Z,86.8
2017-10-21T06:21:23.060Z,86.7
2017-10-21T06:22:24.446Z,86.4
2017-10-21T06:23:25.857Z,86.8
2017-10-21T06:24:27.264Z,86.8
2017-10-21T06:25:28.649Z,86.3
2017-10-21T06:26:30.043Z,86.5
2017-10-21T06:27:31.428Z,86.5
2017-10-21T06:28:32.820Z,86.7
2017-10-21T06:29:34.207Z,86.5
2017-10-21T06:30:35.602Z,86.9
2017-10-21T06:31:36.991Z,87.4
2017-10-21T06:32:38.383Z,87.0
2017-10-21T06:33:39.771Z,87.2
2017-10-21T06:34:41.161Z,87.5
2017-10-21T06:35:42.555Z,87.3
2017-10-21T06:36:43.946Z,87.4
2017-10-21T06:37:45.338Z,88.2
2017-10-21T06:38:46.731Z,88.0
2017-10-21T06:39:48.119Z,87.9
2017-10-21T06:40:49.510Z,87.7
2017-10-21T06:41:50.903Z,87.7
2017-10-21T06:42:52.293Z,87.8
2017-10-21T06:43:53.685Z,87.7
2017-10-21T06:44:55.077Z,88.1
2017-10-21T06:45:56.472Z,88.1
2017-10-21T06:46:57.859Z,88.3
2017-10-21T06:47:59.249Z,88.5
2017-10-21T06:49:00.637Z,88.7
2017-10-21T06:50:02.030Z,89.2
2017-10-21T06:51:03.426Z,88.7
2017-10-21T06:52:04.813Z,88.6
2017-10-21T06:53:06.203Z,89.0
2017-10-21T06:54:07.593Z,89.0
2017-10-21T06:55:08.982Z,89.0
2017-10-21T06:56:10.380Z,88.7
2017-10-21T06:57:11.764Z,88.6
2017-10-21T06:58:13.153Z,88.5
2017-10-21T06:59:14.548Z,88.6
2017-10-21T07:00:15.940Z,89.1
2017-10-21T07:01:17.325Z,88.8
2017-10-21T07:02:18.717Z,88.8
2017-10-21T07:03:20.113Z,89.0
2017-10-21T07:04:21.503Z,88.7
2017-10-21T07:05:22.894Z,88.4
2017-10-21T07:06:24.290Z,87.9
2017-10-21T07:07:25.680Z,87.9
2017-10-21T07:08:27.069Z,87.9
2017-10-21T07:09:28.459Z,88.1
2017-10-21T07:10:29.850Z,88.1
2017-10-21T07:11:31.244Z,88.1
2017-10-21T07:12:32.629Z,87.9
2017-10-21T07:13:34.021Z,88.0
2017-10-21T07:14:35.415Z,88.3
2017-10-21T07:15:36.819Z,88.6
2017-10-21T07:16:38.207Z,88.8
2017-10-21T07:17:39.598Z,89.2
2017-10-21T07:18:40.990Z,90.0
2017-10-21T07:19:42.380Z,90.4
2017-10-21T07:20:43.772Z,90.3
2017-10-21T07:21:45.166Z,90.4
2017-10-21T07:22:46.555Z,91.4
2017-10-21T07:23:47.945Z,91.6
2017-10-21T07:24:49.360Z,91.1
2017-10-21T07:25:50.755Z,91.5
2017-10-21T07:26:52.144Z,92.5
2017-10-21T07:27:53.538Z,92.3
2017-10-21T07:28:54.931Z,92.5
2017-10-21T07:29:56.321Z,92.2
2017-10-21T07:30:57.713Z,92.2
2017-10-21T07:31:59.106Z,92.4
2017-10-21T07:33:00.500Z,92.0
2017-10-21T07:34:01.893Z,92.2
2017-10-21T07:35:03.289Z,92.2
2017-10-21T07:36:04.685Z,92.6
2017-10-21T07:37:06.073Z,92.4
2017-10-21T07:38:07.464Z,92.4
2017-10-21T07:39:08.857Z,92.1
2017-10-21T07:40:10.252Z,92.6
2017-10-21T07:41:11.641Z,91.6
2017-10-21T07:42:13.036Z,92.7
2017-10-21T07:43:14.428Z,92.2
2017-10-21T07:44:15.818Z,92.1
2017-10-21T07:45:17.210Z,92.0
2017-10-21T07:46:18.601Z,92.4
2017-10-21T07:47:19.990Z,92.6
2017-10-21T07:48:21.381Z,92.0
2017-10-21T07:49:22.775Z,92.1
2017-10-21T07:50:24.168Z,92.2
2017-10-21T07:51:25.557Z,92.4
2017-10-21T07:52:26.949Z,92.3
2017-10-21T07:53:28.345Z,92.3
2017-10-21T07:54:29.736Z,92.8
2017-10-21T07:55:31.130Z,93.0
2017-10-21T07:56:32.526Z,92.7
2017-10-21T07:57:33.917Z,91.9
2017-10-21T07:58:35.307Z,91.6
2017-10-21T07:59:36.699Z,92.2
2017-10-21T08:00:38.093Z,92.8
2017-10-21T08:01:39.484Z,93.5
2017-10-21T08:02:40.892Z,93.4
2017-10-21T08:03:42.305Z,93.8
2017-10-21T08:04:43.696Z,93.0
2017-10-21T08:05:45.088Z,93.8
2017-10-21T08:06:46.481Z,92.8
2017-10-21T08:07:47.872Z,92.9
2017-10-21T08:08:49.266Z,93.0
2017-10-21T08:09:50.660Z,92.9
2017-10-21T08:10:52.054Z,92.8
2017-10-21T08:11:53.450Z,93.0
2017-10-21T08:12:54.841Z,93.1
2017-10-21T08:13:56.247Z,93.3
2017-10-21T08:14:57.636Z,93.1
2017-10-21T08:15:59.028Z,93.0
2017-10-21T08:17:00.425Z,93.5
2017-10-21T08:18:01.824Z,93.5
2017-10-21T08:19:03.214Z,93.2
2017-10-21T08:20:04.605Z,93.4
2017-10-21T08:21:05.998Z,92.9
2017-10-21T08:22:07.390Z,92.9
2017-10-21T08:23:08.784Z,93.0
2017-10-21T08:24:10.176Z,93.0
2017-10-21T08:25:11.571Z,93.0
2017-10-21T08:26:12.967Z,93.2
2017-10-21T08:27:14.358Z,93.0
2017-10-21T08:28:15.754Z,93.1
2017-10-21T08:29:17.147Z,92.8
2017-10-21T08:30:18.542Z,92.9
2017-10-21T08:31:19.936Z,92.7
2017-10-21T08:32:21.327Z,92.7
2017-10-21T08:33:22.723Z,92.7
2017-10-21T08:34:24.116Z,92.7
2017-10-21T08:35:25.521Z,91.5
2017-10-21T08:36:26.916Z,91.9
2017-10-21T08:37:28.305Z,91.8
2017-10-21T08:38:29.702Z,91.8
2017-10-21T08:39:31.097Z,91.7
2017-10-21T08:40:32.493Z,91.2
2017-10-21T08:41:33.885Z,91.1
2017-10-21T08:42:35.279Z,91.5
2017-10-21T08:43:36.670Z,91.5
2017-10-21T08:44:38.062Z,90.7
2017-10-21T08:45:39.457Z,91.1
2017-10-21T08:46:40.851Z,90.9
2017-10-21T08:47:42.246Z,90.9
2017-10-21T08:48:43.637Z,90.7
2017-10-21T08:49:45.030Z,91.0
2017-10-21T08:50:46.423Z,90.3
2017-10-21T08:51:47.820Z,90.3
2017-10-21T08:52:49.216Z,90.9
2017-10-21T08:53:50.614Z,90.8
2017-10-21T08:54:52.008Z,90.7
2017-10-21T08:55:53.428Z,89.7
2017-10-21T08:56:54.795Z,89.7
2017-10-21T08:57:56.189Z,89.7
2017-10-21T08:58:57.581Z,90.1
2017-10-21T08:59:58.977Z,90.1
2017-10-21T09:01:00.370Z,89.2
2017-10-21T09:02:01.767Z,89.2
2017-10-21T09:03:03.157Z,89.4
2017-10-21T09:04:04.551Z,89.3
2017-10-21T09:05:05.949Z,89.0
2017-10-21T09:06:07.344Z,89.0
2017-10-21T09:07:08.740Z,89.5
2017-10-21T09:08:10.134Z,88.8
2017-10-21T09:09:11.530Z,89.2
2017-10-21T09:10:12.919Z,89.2
2017-10-21T09:11:14.320Z,88.9
2017-10-21T09:12:15.719Z,88.3
2017-10-21T09:13:17.127Z,88.4
2017-10-21T09:14:18.503Z,88.6
2017-10-21T09:15:19.899Z,87.9
2017-10-21T09:16:21.292Z,88.3
2017-10-21T09:17:22.686Z,88.3
2017-10-21T09:18:24.154Z,87.7
2017-10-21T09:19:25.804Z,87.7
2017-10-21T09:20:27.262Z,87.4
2017-10-21T09:21:28.662Z,87.7
2017-10-21T09:22:30.056Z,86.8
2017-10-21T09:23:31.449Z,87.2
2017-10-21T09:24:32.849Z,86.5
2017-10-21T09:25:34.231Z,86.9
2017-10-21T09:26:35.630Z,87.0
2017-10-21T09:27:37.016Z,86.3
2017-10-21T09:28:38.413Z,86.4
2017-10-21T09:29:39.812Z,86.0
2017-10-21T09:30:41.207Z,86.3
2017-10-21T09:31:43.026Z,86.4
2017-10-21T09:32:44.433Z,86.5
2017-10-21T09:33:45.827Z,86.0
2017-10-21T09:34:47.222Z,86.3
2017-10-21T09:35:48.616Z,86.6
2017-10-21T09:36:50.021Z,86.7
2017-10-21T09:37:51.413Z,86.5
2017-10-21T09:38:52.808Z,86.5
2017-10-21T09:39:54.299Z,86.7
2017-10-21T09:40:55.739Z,86.6
2017-10-21T09:41:57.134Z,86.0
2017-10-21T09:42:58.532Z,86.4
2017-10-21T09:43:59.927Z,86.0
2017-10-21T09:45:01.323Z,86.3
2017-10-21T09:46:02.720Z,86.2
2017-10-21T09:47:04.114Z,85.9
2017-10-21T09:48:05.506Z,85.0
2017-10-21T09:49:07.436Z,85.7
2017-10-21T09:50:08.861Z,85.7
2017-10-21T09:51:10.260Z,85.6
2017-10-21T09:52:11.708Z,85.7
2017-10-21T09:53:13.100Z,84.9
2017-10-21T09:54:14.494Z,85.1
2017-10-21T09:55:15.893Z,85.2
2017-10-21T09:56:17.291Z,85.3
2017-10-21T09:57:18.707Z,85.2
2017-10-21T09:58:20.085Z,84.8
2017-10-21T09:59:21.481Z,85.4
2017-10-21T10:00:22.874Z,85.5
2017-10-21T10:01:24.265Z,85.0
2017-10-21T10:02:25.660Z,85.6
2017-10-21T10:03:27.054Z,85.1
2017-10-21T10:04:28.452Z,85.7
2017-10-21T10:05:29.847Z,85.1
2017-10-21T10:06:31.244Z,85.0
2017-10-21T10:07:32.634Z,85.7
2017-10-21T10:08:34.025Z,86.1
2017-10-21T10:09:35.417Z,86.1
2017-10-21T10:10:37.758Z,86.2
2017-10-21T10:11:39.145Z,86.9
2017-10-21T10:12:40.542Z,86.6
2017-10-21T10:13:41.937Z,86.1
2017-10-21T10:14:43.432Z,86.0
2017-10-21T10:15:44.826Z,86.7
2017-10-21T10:16:46.227Z,86.9
2017-10-21T10:17:47.620Z,87.2
2017-10-21T10:18:49.018Z,86.0
2017-10-21T10:19:50.412Z,86.7
2017-10-21T10:20:51.901Z,86.5
2017-10-21T10:21:53.332Z,86.5
2017-10-21T10:22:54.750Z,86.0
2017-10-21T10:23:56.184Z,86.4
2017-10-21T10:24:57.578Z,85.9
2017-10-21T10:25:58.972Z,85.5
2017-10-21T10:27:00.370Z,84.9
2017-10-21T10:28:01.766Z,84.8
2017-10-21T10:29:03.269Z,84.3
2017-10-21T10:30:04.663Z,84.4
2017-10-21T10:31:06.063Z,83.3
2017-10-21T10:32:07.452Z,83.7
2017-10-21T10:33:08.848Z,83.1
2017-10-21T10:34:10.247Z,81.1
2017-10-21T10:35:11.647Z,79.9
2017-10-21T10:36:13.045Z,80.7
2017-10-21T10:37:14.439Z,81.4
2017-10-21T10:38:15.835Z,81.1
2017-10-21T10:39:17.235Z,81.4
2017-10-21T10:40:18.628Z,81.0
2017-10-21T10:41:20.029Z,80.0
2017-10-21T10:42:21.474Z,79.9
2017-10-21T10:43:23.972Z,79.4
2017-10-21T10:44:25.575Z,79.9
2017-10-21T10:45:26.972Z,79.7
2017-10-21T10:46:28.380Z,79.6
2017-10-21T10:47:29.775Z,79.7
2017-10-21T10:48:31.172Z,79.7
2017-10-21T10:49:32.569Z,79.6
2017-10-21T10:50:33.969Z,79.6
2017-10-21T10:51:35.368Z,80.4
2017-10-21T10:52:36.777Z,79.5
2017-10-21T10:53:38.170Z,79.4
2017-10-21T10:54:39.570Z,79.4
2017-10-21T10:55:40.969Z,79.7
2017-10-21T10:56:42.361Z,78.0
2017-10-21T10:57:43.763Z,78.6
2017-10-21T10:58:45.159Z,79.0
2017-10-21T10:59:46.557Z,78.3
2017-10-21T11:00:47.953Z,77.9
2017-10-21T11:01:49.352Z,77.1
2017-10-21T11:02:50.748Z,77.5
2017-10-21T11:03:52.146Z,78.3
2017-10-21T11:04:53.539Z,78.8
2017-10-21T11:05:54.938Z,78.3
2017-10-21T11:06:56.339Z,77.9
2017-10-21T11:07:57.835Z,78.2
2017-10-21T11:08:59.280Z,77.2
2017-10-21T11:10:00.770Z,75.6
2017-10-21T11:11:02.192Z,76.0
2017-10-21T11:12:03.632Z,75.4
2017-10-21T11:13:05.703Z,75.6
2017-10-21T11:14:07.342Z,74.8
2017-10-21T11:15:08.888Z,74.5
2017-10-21T11:16:10.307Z,73.3
2017-10-21T11:17:11.894Z,73.5
2017-10-21T11:18:13.308Z,73.2
2017-10-21T11:19:15.088Z,73.1
2017-10-21T11:20:16.709Z,73.2
2017-10-21T11:21:18.401Z,74.5
2017-10-21T11:22:19.914Z,72.7
2017-10-21T11:23:21.625Z,73.1
2017-10-21T11:24:23.034Z,73.5
2017-10-21T11:25:24.480Z,72.5
2017-10-21T11:26:25.974Z,72.4
2017-10-21T11:27:27.639Z,72.9
2017-10-21T11:28:29.197Z,72.2
2017-10-21T11:29:30.603Z,71.7
2017-10-21T11:30:32.009Z,71.0
2017-10-21T11:31:33.415Z,72.0
2017-10-21T11:32:34.824Z,71.8
2017-10-21T11:33:36.262Z,72.1
2017-10-21T11:34:37.666Z,71.5
2017-10-21T11:35:39.070Z,70.8
2017-10-21T11:36:40.485Z,69.8
2017-10-21T11:37:41.904Z,69.4
2017-10-21T11:38:43.311Z,70.1
2017-10-21T11:39:44.718Z,69.5
2017-10-21T11:40:46.122Z,68.7
2017-10-21T11:41:47.527Z,69.0
2017-10-21T11:42:48.935Z,69.8
2017-10-21T11:43:50.344Z,70.7
2017-10-21T11:44:51.752Z,70.2
2017-10-21T11:45:53.158Z,69.3
2017-10-21T11:46:54.567Z,69.3
2017-10-21T11:47:55.970Z,68.1
2017-10-21T11:48:57.375Z,69.6
2017-10-21T11:49:58.778Z,69.6
2017-10-21T11:51:00.183Z,69.0
2017-10-21T11:52:02.518Z,69.2
2017-10-21T11:53:03.931Z,69.4
2017-10-21T11:54:05.335Z,68.1
2017-10-21T11:55:06.739Z,68.6
2017-10-21T11:56:08.144Z,69.1
2017-10-21T11:57:09.548Z,69.3
2017-10-21T11:58:10.953Z,70.2
2017-10-21T11:59:12.359Z,70.0
2017-10-21T12:00:13.768Z,70.6
2017-10-21T12:01:15.172Z,70.8
2017-10-21T12:02:16.707Z,70.3
2017-10-21T12:03:18.111Z,70.2
2017-10-21T12:04:20.083Z,70.7
2017-10-21T12:05:21.492Z,70.8
2017-10-21T12:06:23.231Z,70.5
2017-10-21T12:07:24.636Z,71.6
2017-10-21T12:08:26.436Z,71.6
2017-10-21T12:09:27.859Z,71.4
2017-10-21T12:10:29.695Z,71.7
2017-10-21T12:11:31.139Z,71.6
2017-10-21T12:12:32.551Z,71.5
2017-10-21T12:13:33.955Z,69.3
2017-10-21T12:14:36.126Z,69.4
2017-10-21T12:15:37.530Z,69.3
2017-10-21T12:16:38.936Z,69.1
2017-10-21T12:17:40.340Z,68.4
2017-10-21T12:18:41.748Z,68.0
2017-10-21T12:19:43.150Z,67.7
2017-10-21T12:20:44.554Z,68.3
2017-10-21T12:21:45.961Z,66.6
2017-10-21T12:22:47.372Z,65.7
2017-10-21T12:23:48.789Z,66.4
2017-10-21T12:24:50.195Z,66.4
2017-10-21T12:25:51.602Z,66.2
2017-10-21T12:26:54.656Z,66.3
2017-10-21T12:27:56.065Z,66.1
2017-10-21T12:28:57.465Z,66.8
2017-10-21T12:29:58.872Z,66.2
2017-10-21T12:31:00.274Z,66.5
2017-10-21T12:32:01.676Z,67.3
2017-10-21T12:33:03.079Z,68.1
2017-10-21T12:34:04.484Z,68.0
2017-10-21T12:35:05.887Z,67.9
2017-10-21T12:36:07.298Z,67.7
2017-10-21T12:37:08.698Z,67.8
2017-10-21T12:38:10.100Z,66.9
2017-10-21T12:39:11.500Z,67.9
2017-10-21T12:40:12.905Z,67.2
2017-10-21T12:41:14.310Z,67.7
2017-10-21T12:42:15.710Z,67.9
2017-10-21T12:43:17.119Z,68.0
2017-10-21T12:44:18.526Z,68.7
2017-10-21T12:45:19.928Z,69.2
2017-10-21T12:46:21.330Z,69.3
2017-10-21T12:47:22.730Z,69.4
2017-10-21T12:48:24.134Z,69.4
2017-10-21T12:49:25.539Z,69.9
2017-10-21T12:50:26.947Z,69.6
2017-10-21T12:51:28.344Z,70.2
2017-10-21T12:52:29.748Z,70.6
2017-10-21T12:53:31.152Z,71.2
2017-10-21T12:54:32.557Z,71.6
2017-10-21T12:55:33.959Z,72.0
2017-10-21T12:56:35.362Z,72.0
2017-10-21T12:57:36.768Z,72.4
2017-10-21T12:58:38.177Z,72.5
2017-10-21T12:59:39.577Z,73.0
2017-10-21T13:00:40.981Z,73.1
2017-10-21T13:01:42.383Z,73.8
2017-10-21T13:02:43.786Z,73.8
2017-10-21T13:03:45.189Z,73.6
2017-10-21T13:04:46.597Z,74.1
2017-10-21T13:05:48.001Z,74.3
2017-10-21T13:06:49.403Z,74.0
2017-10-21T13:07:50.804Z,74.7
2017-10-21T13:08:52.205Z,75.0
2017-10-21T13:09:53.608Z,75.1
2017-10-21T13:10:55.010Z,74.7
2017-10-21T13:11:56.416Z,75.1
2017-10-21T13:12:57.822Z,74.9
2017-10-21T13:13:59.225Z,74.7
2017-10-21T13:15:00.629Z,74.5
2017-10-21T13:16:02.035Z,74.6
2017-10-21T13:17:03.438Z,75.1
2017-10-21T13:18:05.171Z,75.0
2017-10-21T13:19:06.575Z,76.1
2017-10-21T13:20:07.981Z,75.4
2017-10-21T13:21:09.382Z,75.5
2017-10-21T13:22:10.793Z,75.8
2017-10-21T13:23:12.196Z,75.6
2017-10-21T13:24:13.592Z,75.7
2017-10-21T13:25:14.996Z,76.4
2017-10-21T13:26:16.400Z,76.6
2017-10-21T13:27:17.807Z,76.8
2017-10-21T13:28:19.207Z,77.0
2017-10-21T13:29:20.612Z,76.9
2017-10-21T13:30:22.012Z,76.9
2017-10-21T13:31:23.418Z,78.0
2017-10-21T13:32:24.824Z,76.3
2017-10-21T13:33:26.227Z,75.8
2017-10-21T13:34:27.629Z,74.7
2017-10-21T13:35:29.029Z,74.6
2017-10-21T13:36:30.432Z,74.3
2017-10-21T13:37:31.833Z,73.6